sensor_id;sensor_type;location;lat;lon;timestamp;pressure;altitude;pressure_sealevel;temperature;humidity
13836;BME280;6988;52.614;13.500;2023-03-15T00:02:24;54881.75;;;-143.77;74.22
13836;BME280;6988;52.614;13.500;2023-03-15T00:07:16;54920.75;;;-143.77;74.27
13836;BME280;6988;52.614;13.500;2023-03-15T00:12:08;54914.59;;;-143.77;74.49
13836;BME280;6988;52.614;13.500;2023-03-15T00:17:01;54855.06;;;-143.77;74.00
13836;BME280;6988;52.614;13.500;2023-03-15T00:21:54;54910.47;;;-143.77;74.12
13836;BME280;6988;52.614;13.500;2023-03-15T00:26:46;54914.59;;;-143.77;74.09
13836;BME280;6988;52.614;13.500;2023-03-15T00:31:38;54898.16;;;-143.77;74.59
13836;BME280;6988;52.614;13.500;2023-03-15T00:36:31;54892.00;;;-143.77;74.06
13836;BME280;6988;52.614;13.500;2023-03-15T00:41:25;54855.06;;;-143.77;74.21
13836;BME280;6988;52.614;13.500;2023-03-15T00:46:17;54896.13;;;-143.77;74.31
13836;BME280;6988;52.614;13.500;2023-03-15T00:51:12;54885.84;;;-143.77;74.59
13836;BME280;6988;52.614;13.500;2023-03-15T00:56:07;54883.81;;;-143.77;73.89
13836;BME280;6988;52.614;13.500;2023-03-15T01:01:05;54922.78;;;-143.77;74.44
13836;BME280;6988;52.614;13.500;2023-03-15T01:05:57;54885.84;;;-143.77;74.25
13836;BME280;6988;52.614;13.500;2023-03-15T01:10:49;54889.97;;;-143.77;73.81
13836;BME280;6988;52.614;13.500;2023-03-15T01:15:45;54887.91;;;-143.77;73.93
13836;BME280;6988;52.614;13.500;2023-03-15T01:20:42;54885.84;;;-143.77;74.19
13836;BME280;6988;52.614;13.500;2023-03-15T01:25:34;54881.75;;;-143.77;74.16
13836;BME280;6988;52.614;13.500;2023-03-15T01:30:26;54885.84;;;-143.77;73.67
13836;BME280;6988;52.614;13.500;2023-03-15T01:35:18;54892.00;;;-143.77;74.01
13836;BME280;6988;52.614;13.500;2023-03-15T01:40:13;54879.69;;;-143.77;74.00
13836;BME280;6988;52.614;13.500;2023-03-15T01:45:59;54885.84;;;-143.77;74.05
13836;BME280;6988;52.614;13.500;2023-03-15T01:50:54;54906.38;;;-143.77;74.08
13836;BME280;6988;52.614;13.500;2023-03-15T01:55:49;54900.22;;;-143.77;74.21
13836;BME280;6988;52.614;13.500;2023-03-15T02:00:50;54914.59;;;-143.77;74.25
13836;BME280;6988;52.614;13.500;2023-03-15T02:05:47;54906.38;;;-143.77;74.73
13836;BME280;6988;52.614;13.500;2023-03-15T02:10:56;54906.38;;;-143.77;74.62
13836;BME280;6988;52.614;13.500;2023-03-15T02:15:50;54928.94;;;-143.77;74.51
13836;BME280;6988;52.614;13.500;2023-03-15T02:21:02;54883.81;;;-143.77;74.31
13836;BME280;6988;52.614;13.500;2023-03-15T02:26:12;54906.38;;;-143.77;74.32
13836;BME280;6988;52.614;13.500;2023-03-15T02:31:09;54928.94;;;-143.77;74.38
13836;BME280;6988;52.614;13.500;2023-03-15T02:36:13;54898.16;;;-143.77;75.24
13836;BME280;6988;52.614;13.500;2023-03-15T02:41:06;54885.84;;;-143.77;75.68
13836;BME280;6988;52.614;13.500;2023-03-15T02:45:59;54904.31;;;-143.77;75.59
13836;BME280;6988;52.614;13.500;2023-03-15T02:50:53;54914.59;;;-143.77;75.93
13836;BME280;6988;52.614;13.500;2023-03-15T02:55:44;54922.78;;;-143.77;75.64
13836;BME280;6988;52.614;13.500;2023-03-15T03:00:36;54933.06;;;-143.77;75.74
13836;BME280;6988;52.614;13.500;2023-03-15T03:05:29;54928.94;;;-143.77;75.86
13836;BME280;6988;52.614;13.500;2023-03-15T03:10:22;54910.47;;;-143.77;76.13
13836;BME280;6988;52.614;13.500;2023-03-15T03:15:20;54920.75;;;-143.77;76.02
13836;BME280;6988;52.614;13.500;2023-03-15T03:20:14;54910.47;;;-143.77;76.04
13836;BME280;6988;52.614;13.500;2023-03-15T03:25:11;54939.22;;;-143.77;76.19
13836;BME280;6988;52.614;13.500;2023-03-15T03:30:08;54902.28;;;-143.77;75.69
13836;BME280;6988;52.614;13.500;2023-03-15T03:35:02;54965.88;;;-143.77;75.72
13836;BME280;6988;52.614;13.500;2023-03-15T03:39:56;54908.44;;;-143.77;75.72
13836;BME280;6988;52.614;13.500;2023-03-15T03:44:47;54898.16;;;-143.77;76.21
13836;BME280;6988;52.614;13.500;2023-03-15T03:49:42;54912.53;;;-143.77;76.38
13836;BME280;6988;52.614;13.500;2023-03-15T03:54:34;54902.28;;;-143.77;75.59
13836;BME280;6988;52.614;13.500;2023-03-15T03:59:26;54918.69;;;-143.77;76.24
13836;BME280;6988;52.614;13.500;2023-03-15T04:04:25;54914.59;;;-143.77;76.21
13836;BME280;6988;52.614;13.500;2023-03-15T04:09:20;54951.53;;;-143.77;76.54
13836;BME280;6988;52.614;13.500;2023-03-15T04:14:14;54926.91;;;-143.77;76.05
13836;BME280;6988;52.614;13.500;2023-03-15T04:19:09;54955.63;;;-143.77;76.50
13836;BME280;6988;52.614;13.500;2023-03-15T04:24:03;54937.16;;;-143.77;76.58
13836;BME280;6988;52.614;13.500;2023-03-15T04:29:19;54957.69;;;-143.77;75.93
13836;BME280;6988;52.614;13.500;2023-03-15T04:34:27;54955.63;;;-143.77;76.73
13836;BME280;6988;52.614;13.500;2023-03-15T04:39:27;54898.16;;;-143.77;76.57
13836;BME280;6988;52.614;13.500;2023-03-15T04:44:58;54900.22;;;-143.77;76.96
13836;BME280;6988;52.614;13.500;2023-03-15T04:50:14;54931.00;;;-143.77;76.44
13836;BME280;6988;52.614;13.500;2023-03-15T04:55:16;54916.63;;;-143.77;76.68
13836;BME280;6988;52.614;13.500;2023-03-15T05:00:22;54937.16;;;-143.77;76.81
13836;BME280;6988;52.614;13.500;2023-03-15T05:05:47;54939.22;;;-143.77;77.09
13836;BME280;6988;52.614;13.500;2023-03-15T05:11:06;54945.38;;;-143.77;76.78
13836;BME280;6988;52.614;13.500;2023-03-15T05:16:28;54906.38;;;-143.77;76.80
13836;BME280;6988;52.614;13.500;2023-03-15T05:21:34;54937.16;;;-143.77;76.56
13836;BME280;6988;52.614;13.500;2023-03-15T05:26:37;54933.06;;;-143.77;76.70
13836;BME280;6988;52.614;13.500;2023-03-15T05:31:50;54906.38;;;-143.77;76.93
13836;BME280;6988;52.614;13.500;2023-03-15T05:37:09;54924.84;;;-143.77;76.97
13836;BME280;6988;52.614;13.500;2023-03-15T05:42:21;54922.78;;;-143.77;76.58
13836;BME280;6988;52.614;13.500;2023-03-15T05:47:25;54935.09;;;-143.77;76.73
13836;BME280;6988;52.614;13.500;2023-03-15T05:52:49;54914.59;;;-143.77;77.11
13836;BME280;6988;52.614;13.500;2023-03-15T05:57:53;54914.59;;;-143.77;76.90
13836;BME280;6988;52.614;13.500;2023-03-15T06:03:00;54892.00;;;-143.77;76.48
13836;BME280;6988;52.614;13.500;2023-03-15T06:08:04;54885.84;;;-143.77;76.32
13836;BME280;6988;52.614;13.500;2023-03-15T06:12:58;54892.00;;;-143.77;76.08
13836;BME280;6988;52.614;13.500;2023-03-15T06:17:51;54867.38;;;-143.77;75.40
13836;BME280;6988;52.614;13.500;2023-03-15T06:22:44;54896.13;;;-143.77;75.17
13836;BME280;6988;52.614;13.500;2023-03-15T06:27:50;54877.66;;;-143.77;75.12
13836;BME280;6988;52.614;13.500;2023-03-15T06:32:43;54840.72;;;-143.77;75.00
13836;BME280;6988;52.614;13.500;2023-03-15T06:37:35;54850.97;;;-143.77;74.10
13836;BME280;6988;52.614;13.500;2023-03-15T06:42:29;54842.75;;;-143.77;73.97
13836;BME280;6988;52.614;13.500;2023-03-15T06:47:21;54873.53;;;-143.77;73.00
13836;BME280;6988;52.614;13.500;2023-03-15T06:52:13;54855.06;;;-143.77;72.64
13836;BME280;6988;52.614;13.500;2023-03-15T06:57:05;54855.06;;;-143.77;72.94
13836;BME280;6988;52.614;13.500;2023-03-15T07:01:58;54848.91;;;-143.77;72.99
13836;BME280;6988;52.614;13.500;2023-03-15T07:06:50;54871.50;;;-143.77;73.63
13836;BME280;6988;52.614;13.500;2023-03-15T07:11:42;54881.75;;;-143.77;73.80
13836;BME280;6988;52.614;13.500;2023-03-15T07:16:34;54857.13;;;-143.77;74.17
13836;BME280;6988;52.614;13.500;2023-03-15T07:21:27;54857.13;;;-143.77;74.44
13836;BME280;6988;52.614;13.500;2023-03-15T07:26:20;54873.53;;;-143.77;74.19
13836;BME280;6988;52.614;13.500;2023-03-15T07:31:12;54834.56;;;-143.77;74.42
13836;BME280;6988;52.614;13.500;2023-03-15T07:36:06;54844.81;;;-143.77;74.49
13836;BME280;6988;52.614;13.500;2023-03-15T07:41:02;54863.28;;;-143.77;74.99
13836;BME280;6988;52.614;13.500;2023-03-15T07:45:55;54865.34;;;-143.77;75.41
13836;BME280;6988;52.614;13.500;2023-03-15T07:50:47;54877.66;;;-143.77;75.50
13836;BME280;6988;52.614;13.500;2023-03-15T07:55:38;54848.91;;;-143.77;75.92
13836;BME280;6988;52.614;13.500;2023-03-15T08:00:32;54853.03;;;-143.77;75.15
13836;BME280;6988;52.614;13.500;2023-03-15T08:05:24;54832.50;;;-143.77;75.29
13836;BME280;6988;52.614;13.500;2023-03-15T08:10:17;54844.81;;;-143.77;75.11
13836;BME280;6988;52.614;13.500;2023-03-15T08:15:10;54834.56;;;-143.77;75.29
13836;BME280;6988;52.614;13.500;2023-03-15T08:20:04;54863.28;;;-143.77;75.17
13836;BME280;6988;52.614;13.500;2023-03-15T08:24:59;54832.50;;;-143.77;74.79
13836;BME280;6988;52.614;13.500;2023-03-15T08:29:51;54822.25;;;-143.77;74.91
13836;BME280;6988;52.614;13.500;2023-03-15T08:34:44;54840.72;;;-143.77;74.01
13836;BME280;6988;52.614;13.500;2023-03-15T08:39:37;54807.88;;;-143.77;73.10
13836;BME280;6988;52.614;13.500;2023-03-15T08:44:29;54844.81;;;-143.77;72.80
13836;BME280;6988;52.614;13.500;2023-03-15T08:49:20;54797.63;;;-143.77;72.95
13836;BME280;6988;52.614;13.500;2023-03-15T08:54:12;54791.47;;;-143.77;72.84
13836;BME280;6988;52.614;13.500;2023-03-15T08:59:06;54807.88;;;-143.77;72.32
13836;BME280;6988;52.614;13.500;2023-03-15T09:08:57;54793.50;;;-143.77;68.01
13836;BME280;6988;52.614;13.500;2023-03-15T09:13:50;54729.91;;;-143.77;67.74
13836;BME280;6988;52.614;13.500;2023-03-15T09:18:43;54621.13;;;-143.77;65.94
13836;BME280;6988;52.614;13.500;2023-03-15T09:23:35;54567.78;;;-143.77;64.90
13836;BME280;6988;52.614;13.500;2023-03-15T09:28:27;54557.53;;;-143.77;62.35
13836;BME280;6988;52.614;13.500;2023-03-15T09:33:48;54684.75;;;-143.77;59.86
13836;BME280;6988;52.614;13.500;2023-03-15T09:38:42;54645.75;;;-143.77;59.78
13836;BME280;6988;52.614;13.500;2023-03-15T09:43:54;54672.44;;;-143.77;59.02
13836;BME280;6988;52.614;13.500;2023-03-15T10:15:23;54697.06;;;-143.77;62.54
13836;BME280;6988;52.614;13.500;2023-03-15T10:20:19;54725.78;;;-143.77;61.59
13836;BME280;6988;52.614;13.500;2023-03-15T10:25:17;54674.50;;;-143.77;60.65
13836;BME280;6988;52.614;13.500;2023-03-15T10:30:17;54645.75;;;-143.77;59.58
13836;BME280;6988;52.614;13.500;2023-03-15T10:35:15;54635.50;;;-143.77;57.01
13836;BME280;6988;52.614;13.500;2023-03-15T10:40:09;54651.91;;;-143.77;58.02
13836;BME280;6988;52.614;13.500;2023-03-15T10:45:19;54664.22;;;-143.77;58.69
13836;BME280;6988;52.614;13.500;2023-03-15T10:50:28;54668.34;;;-143.77;57.96
13836;BME280;6988;52.614;13.500;2023-03-15T10:55:30;54670.38;;;-143.77;57.19
13836;BME280;6988;52.614;13.500;2023-03-15T11:00:30;54592.41;;;-143.77;57.71
13836;BME280;6988;52.614;13.500;2023-03-15T11:05:29;54629.34;;;-143.77;56.28
13836;BME280;6988;52.614;13.500;2023-03-15T11:10:23;54549.31;;;-143.77;58.32
13836;BME280;6988;52.614;13.500;2023-03-15T11:15:17;54614.97;;;-143.77;56.59
13836;BME280;6988;52.614;13.500;2023-03-15T11:20:25;54537.00;;;-143.77;55.95
13836;BME280;6988;52.614;13.500;2023-03-15T11:25:22;54588.31;;;-143.77;51.66
13836;BME280;6988;52.614;13.500;2023-03-15T11:30:20;54512.38;;;-143.77;56.64
13836;BME280;6988;52.614;13.500;2023-03-15T12:14:47;54614.97;;;-143.77;55.34
13836;BME280;6988;52.614;13.500;2023-03-15T12:34:14;54596.50;;;-143.77;54.34
13836;BME280;6988;52.614;13.500;2023-03-15T12:39:36;54645.75;;;-143.77;55.37
13836;BME280;6988;52.614;13.500;2023-03-15T12:44:38;54631.41;;;-143.77;55.95
13836;BME280;6988;52.614;13.500;2023-03-15T12:49:36;54586.25;;;-143.77;54.51
13836;BME280;6988;52.614;13.500;2023-03-15T12:54:38;54600.63;;;-143.77;51.38
13836;BME280;6988;52.614;13.500;2023-03-15T12:59:42;54598.56;;;-143.77;48.67
13836;BME280;6988;52.614;13.500;2023-03-15T13:04:37;54567.78;;;-143.77;47.95
13836;BME280;6988;52.614;13.500;2023-03-15T13:10:00;54549.31;;;-143.77;47.78
13836;BME280;6988;52.614;13.500;2023-03-15T13:28:06;54559.56;;;-143.77;41.60
13836;BME280;6988;52.614;13.500;2023-03-15T13:33:10;54522.63;;;-143.77;43.06
13836;BME280;6988;52.614;13.500;2023-03-15T13:38:21;54557.53;;;-143.77;43.82
13836;BME280;6988;52.614;13.500;2023-03-15T13:43:15;54561.63;;;-143.77;43.07
13836;BME280;6988;52.614;13.500;2023-03-15T13:48:08;54621.13;;;-143.77;44.80
13836;BME280;6988;52.614;13.500;2023-03-15T13:53:00;54658.06;;;-143.77;54.41
13836;BME280;6988;52.614;13.500;2023-03-15T13:57:57;54676.53;;;-143.77;62.02
13836;BME280;6988;52.614;13.500;2023-03-15T14:02:54;54635.50;;;-143.77;65.31
13836;BME280;6988;52.614;13.500;2023-03-15T14:07:48;54598.56;;;-143.77;65.31
13836;BME280;6988;52.614;13.500;2023-03-15T14:12:45;54594.47;;;-143.77;62.53
13836;BME280;6988;52.614;13.500;2023-03-15T14:17:51;54586.25;;;-143.77;61.11
13836;BME280;6988;52.614;13.500;2023-03-15T14:22:43;54600.63;;;-143.77;61.67
13836;BME280;6988;52.614;13.500;2023-03-15T14:27:35;54565.72;;;-143.77;58.26
13836;BME280;6988;52.614;13.500;2023-03-15T14:32:30;54532.91;;;-143.77;55.13
13836;BME280;6988;52.614;13.500;2023-03-15T14:37:34;54551.38;;;-143.77;54.35
13836;BME280;6988;52.614;13.500;2023-03-15T14:42:27;54516.50;;;-143.77;53.99
13836;BME280;6988;52.614;13.500;2023-03-15T14:47:19;54504.19;;;-143.77;49.57
13836;BME280;6988;52.614;13.500;2023-03-15T14:52:13;54479.56;;;-143.77;48.58
13836;BME280;6988;52.614;13.500;2023-03-15T14:57:08;54586.25;;;-143.77;48.76
13836;BME280;6988;52.614;13.500;2023-03-15T15:02:00;54551.38;;;-143.77;47.47
13836;BME280;6988;52.614;13.500;2023-03-15T15:06:54;54551.38;;;-143.77;48.56
13836;BME280;6988;52.614;13.500;2023-03-15T15:11:48;54500.06;;;-143.77;46.16
13836;BME280;6988;52.614;13.500;2023-03-15T15:24:00;54516.50;;;-143.77;45.76
13836;BME280;6988;52.614;13.500;2023-03-15T15:28:53;54582.16;;;-143.77;45.36
13836;BME280;6988;52.614;13.500;2023-03-15T15:33:46;54608.81;;;-143.77;46.25
13836;BME280;6988;52.614;13.500;2023-03-15T15:38:40;54627.28;;;-143.77;44.51
13836;BME280;6988;52.614;13.500;2023-03-15T15:43:36;54627.28;;;-143.77;46.68
13836;BME280;6988;52.614;13.500;2023-03-15T15:48:28;54658.06;;;-143.77;47.27
13836;BME280;6988;52.614;13.500;2023-03-15T15:53:20;54656.03;;;-143.77;47.05
13836;BME280;6988;52.614;13.500;2023-03-15T15:58:13;54639.59;;;-143.77;47.22
13836;BME280;6988;52.614;13.500;2023-03-15T16:03:11;54672.44;;;-143.77;48.77
13836;BME280;6988;52.614;13.500;2023-03-15T16:08:18;54664.22;;;-143.77;49.12
13836;BME280;6988;52.614;13.500;2023-03-15T16:13:11;54688.84;;;-143.77;50.03
13836;BME280;6988;52.614;13.500;2023-03-15T16:18:10;54688.84;;;-143.77;56.55
13836;BME280;6988;52.614;13.500;2023-03-15T16:23:02;54703.22;;;-143.77;59.40
13836;BME280;6988;52.614;13.500;2023-03-15T16:27:55;54717.59;;;-143.77;60.59
13836;BME280;6988;52.614;13.500;2023-03-15T16:32:48;54740.16;;;-143.77;61.38
13836;BME280;6988;52.614;13.500;2023-03-15T16:37:46;54760.69;;;-143.77;65.43
13836;BME280;6988;52.614;13.500;2023-03-15T16:42:42;54840.72;;;-143.77;67.10
13836;BME280;6988;52.614;13.500;2023-03-15T16:47:34;54754.53;;;-143.77;67.81
13836;BME280;6988;52.614;13.500;2023-03-15T16:52:31;54787.34;;;-143.77;67.81
13836;BME280;6988;52.614;13.500;2023-03-15T17:03:56;54791.47;;;-143.77;66.89
13836;BME280;6988;52.614;13.500;2023-03-15T17:08:49;54734.00;;;-143.77;67.02
13836;BME280;6988;52.614;13.500;2023-03-15T17:13:41;54803.78;;;-143.77;66.50
13836;BME280;6988;52.614;13.500;2023-03-15T17:18:33;54775.03;;;-143.77;66.41
13836;BME280;6988;52.614;13.500;2023-03-15T17:23:26;54803.78;;;-143.77;67.65
13836;BME280;6988;52.614;13.500;2023-03-15T17:28:18;54775.03;;;-143.77;68.22
13836;BME280;6988;52.614;13.500;2023-03-15T17:33:10;54814.03;;;-143.77;69.27
13836;BME280;6988;52.614;13.500;2023-03-15T17:38:03;54828.41;;;-143.77;70.47
13836;BME280;6988;52.614;13.500;2023-03-15T17:43:00;54807.88;;;-143.77;70.83
13836;BME280;6988;52.614;13.500;2023-03-15T17:47:53;54811.97;;;-143.77;72.03
13836;BME280;6988;52.614;13.500;2023-03-15T17:52:49;54799.66;;;-143.77;72.24
13836;BME280;6988;52.614;13.500;2023-03-15T17:57:44;54842.75;;;-143.77;72.55
13836;BME280;6988;52.614;13.500;2023-03-15T18:02:38;54832.50;;;-143.77;73.21
13836;BME280;6988;52.614;13.500;2023-03-15T18:07:31;54828.41;;;-143.77;73.63
13836;BME280;6988;52.614;13.500;2023-03-15T18:12:23;54824.28;;;-143.77;73.63
13836;BME280;6988;52.614;13.500;2023-03-15T18:17:15;54857.13;;;-143.77;73.54
13836;BME280;6988;52.614;13.500;2023-03-15T18:22:14;54807.88;;;-143.77;73.65
13836;BME280;6988;52.614;13.500;2023-03-15T18:27:07;54840.72;;;-143.77;73.52
13836;BME280;6988;52.614;13.500;2023-03-15T18:32:00;54889.97;;;-143.77;73.74
13836;BME280;6988;52.614;13.500;2023-03-15T18:36:52;54871.50;;;-143.77;74.14
13836;BME280;6988;52.614;13.500;2023-03-15T18:41:45;54920.75;;;-143.77;73.90
13836;BME280;6988;52.614;13.500;2023-03-15T18:46:36;54836.59;;;-143.77;74.14
13836;BME280;6988;52.614;13.500;2023-03-15T18:51:28;54840.72;;;-143.77;74.46
13836;BME280;6988;52.614;13.500;2023-03-15T18:56:22;54869.44;;;-143.77;74.24
13836;BME280;6988;52.614;13.500;2023-03-15T19:01:18;54885.84;;;-143.77;74.25
13836;BME280;6988;52.614;13.500;2023-03-15T19:06:12;54863.28;;;-143.77;74.58
13836;BME280;6988;52.614;13.500;2023-03-15T19:11:05;54863.28;;;-143.77;74.71
13836;BME280;6988;52.614;13.500;2023-03-15T19:15:58;54885.84;;;-143.77;74.65
13836;BME280;6988;52.614;13.500;2023-03-15T19:20:52;54861.22;;;-143.77;74.56
13836;BME280;6988;52.614;13.500;2023-03-15T19:25:44;54883.81;;;-143.77;75.23
13836;BME280;6988;52.614;13.500;2023-03-15T19:30:36;54906.38;;;-143.77;74.87
13836;BME280;6988;52.614;13.500;2023-03-15T19:35:28;54894.06;;;-143.77;75.41
13836;BME280;6988;52.614;13.500;2023-03-15T19:40:22;54883.81;;;-143.77;75.73
13836;BME280;6988;52.614;13.500;2023-03-15T19:45:14;54922.78;;;-143.77;75.66
13836;BME280;6988;52.614;13.500;2023-03-15T19:50:09;54881.75;;;-143.77;76.09
13836;BME280;6988;52.614;13.500;2023-03-15T19:55:01;54873.53;;;-143.77;76.04
13836;BME280;6988;52.614;13.500;2023-03-15T19:59:55;54877.66;;;-143.77;75.97
13836;BME280;6988;52.614;13.500;2023-03-15T20:04:46;54836.59;;;-143.77;76.65
13836;BME280;6988;52.614;13.500;2023-03-15T20:09:39;54881.75;;;-143.77;76.67
13836;BME280;6988;52.614;13.500;2023-03-15T20:14:31;54857.13;;;-143.77;76.41
13836;BME280;6988;52.614;13.500;2023-03-15T20:19:24;54885.84;;;-143.77;76.70
13836;BME280;6988;52.614;13.500;2023-03-15T20:24:16;54869.44;;;-143.77;77.01
13836;BME280;6988;52.614;13.500;2023-03-15T20:29:08;54867.38;;;-143.77;77.69
13836;BME280;6988;52.614;13.500;2023-03-15T20:33:59;54974.09;;;-143.77;77.79
13836;BME280;6988;52.614;13.500;2023-03-15T20:38:52;54887.91;;;-143.77;77.69
13836;BME280;6988;52.614;13.500;2023-03-15T20:43:45;54867.38;;;-143.77;78.09
13836;BME280;6988;52.614;13.500;2023-03-15T20:48:37;54881.75;;;-143.77;78.32
13836;BME280;6988;52.614;13.500;2023-03-15T20:53:30;54924.84;;;-143.77;78.39
13836;BME280;6988;52.614;13.500;2023-03-15T20:58:23;54853.03;;;-143.77;78.32
13836;BME280;6988;52.614;13.500;2023-03-15T21:03:16;54887.91;;;-143.77;78.72
13836;BME280;6988;52.614;13.500;2023-03-15T21:08:08;54937.16;;;-143.77;78.54
13836;BME280;6988;52.614;13.500;2023-03-15T21:13:00;54947.41;;;-143.77;78.81
13836;BME280;6988;52.614;13.500;2023-03-15T21:17:57;54881.75;;;-143.77;79.08
13836;BME280;6988;52.614;13.500;2023-03-15T21:22:49;54902.28;;;-143.77;78.76
13836;BME280;6988;52.614;13.500;2023-03-15T21:27:41;54898.16;;;-143.77;79.05
13836;BME280;6988;52.614;13.500;2023-03-15T21:32:33;54951.53;;;-143.77;79.12
13836;BME280;6988;52.614;13.500;2023-03-15T21:37:26;54926.91;;;-143.77;79.29
13836;BME280;6988;52.614;13.500;2023-03-15T21:42:18;54951.53;;;-143.77;79.25
13836;BME280;6988;52.614;13.500;2023-03-15T21:47:10;54883.81;;;-143.77;79.27
13836;BME280;6988;52.614;13.500;2023-03-15T21:52:04;54914.59;;;-143.77;79.56
13836;BME280;6988;52.614;13.500;2023-03-15T21:56:57;54976.16;;;-143.77;79.73
13836;BME280;6988;52.614;13.500;2023-03-15T22:01:48;54898.16;;;-143.77;79.70
13836;BME280;6988;52.614;13.500;2023-03-15T22:06:40;54914.59;;;-143.77;79.67
13836;BME280;6988;52.614;13.500;2023-03-15T22:11:32;54945.38;;;-143.77;79.83
13836;BME280;6988;52.614;13.500;2023-03-15T22:16:25;54861.22;;;-143.77;79.91
13836;BME280;6988;52.614;13.500;2023-03-15T22:21:17;54972.03;;;-143.77;80.18
13836;BME280;6988;52.614;13.500;2023-03-15T22:26:09;54916.63;;;-143.77;79.72
13836;BME280;6988;52.614;13.500;2023-03-15T22:31:01;54947.41;;;-143.77;79.75
13836;BME280;6988;52.614;13.500;2023-03-15T22:35:56;54896.13;;;-143.77;79.49
13836;BME280;6988;52.614;13.500;2023-03-15T22:40:48;54900.22;;;-143.77;79.75
13836;BME280;6988;52.614;13.500;2023-03-15T23:03:57;54922.78;;;-143.77;79.98
13836;BME280;6988;52.614;13.500;2023-03-15T23:08:49;54914.59;;;-143.77;80.50
13836;BME280;6988;52.614;13.500;2023-03-15T23:13:41;54955.63;;;-143.77;81.28
13836;BME280;6988;52.614;13.500;2023-03-15T23:18:32;54914.59;;;-143.77;81.16
13836;BME280;6988;52.614;13.500;2023-03-15T23:23:26;54935.09;;;-143.77;81.20
13836;BME280;6988;52.614;13.500;2023-03-15T23:28:20;54937.16;;;-143.77;81.11
13836;BME280;6988;52.614;13.500;2023-03-15T23:33:13;54928.94;;;-143.77;81.38
13836;BME280;6988;52.614;13.500;2023-03-15T23:38:05;54947.41;;;-143.77;81.32
13836;BME280;6988;52.614;13.500;2023-03-15T23:42:59;54922.78;;;-143.77;81.55
13836;BME280;6988;52.614;13.500;2023-03-15T23:47:51;54963.84;;;-143.77;82.03
13836;BME280;6988;52.614;13.500;2023-03-15T23:52:43;54935.09;;;-143.77;81.77
13836;BME280;6988;52.614;13.500;2023-03-15T23:57:35;54937.16;;;-143.77;81.81
